Time;durP1;ratioP1;P1;durP2;ratioP2;P2;SDS_P1;SDS_P2;PMS_P1;PMS_P2;Temp;Humidity;BMP_temperature;BMP_pressure;BME280_temperature;BME280_humidity;BME280_pressure;Samples;Min_cycle;Max_cycle;Signal;HPM_P1;HPM_P2
2023/01/30 00:01:47;;;;;;;3.15;2.38;;;22.00;51.50;;;;;;5093106;28;20203;-62
2023/01/30 00:04:35;;;;;;;2.58;2.25;;;22.00;51.50;;;;;;5094075;28;20676;-63
2023/01/30 00:07:26;;;;;;;1.98;1.88;;;21.90;51.50;;;;;;5093882;28;20281;-62
2023/01/30 00:10:40;;;;;;;2.72;2.53;;;21.90;51.50;;;;;;5081314;28;20216;-62
2023/01/30 00:13:28;;;;;;;3.08;2.22;;;21.90;51.60;;;;;;5092846;28;20200;-63
2023/01/30 00:16:16;;;;;;;2.33;2.13;;;21.80;51.50;;;;;;5095541;28;20283;-62
2023/01/30 00:19:04;;;;;;;2.22;2.13;;;21.80;51.70;;;;;;5096545;28;20215;-63
2023/01/30 00:21:52;;;;;;;2.80;1.77;;;21.80;51.80;;;;;;5097729;28;20259;-62
2023/01/30 00:24:40;;;;;;;3.85;2.60;;;21.70;51.70;;;;;;5096209;28;20696;-63
2023/01/30 00:27:30;;;;;;;2.65;2.35;;;21.70;51.70;;;;;;5096495;28;20258;-62
2023/01/30 00:30:18;;;;;;;2.42;2.22;;;21.60;51.80;;;;;;5095730;28;20216;-62
2023/01/30 00:33:07;;;;;;;2.30;2.10;;;21.70;51.90;;;;;;5096068;28;20687;-63
2023/01/30 00:35:56;;;;;;;2.20;2.00;;;21.70;51.70;;;;;;5097017;28;20865;-62
2023/01/30 00:38:44;;;;;;;2.28;2.17;;;21.70;51.90;;;;;;5096474;28;20207;-63
2023/01/30 00:47:41;;;;;;;5.80;2.33;;;21.90;51.80;;;;;;5094373;28;20260;-62
2023/01/30 00:50:41;;;;;;;3.45;2.00;;;22.00;51.70;;;;;;5095349;28;20216;-63
2023/01/30 00:53:29;;;;;;;2.65;2.20;;;22.00;51.60;;;;;;5095798;28;20553;-62
2023/01/30 00:56:17;;;;;;;2.60;2.40;;;22.00;51.50;;;;;;5095338;28;20261;-62
2023/01/30 00:59:05;;;;;;;2.83;2.28;;;22.00;51.50;;;;;;5095707;28;20226;-62
2023/01/30 01:01:55;;;;;;;2.30;2.10;;;22.10;51.40;;;;;;5094928;28;20196;-62
2023/01/30 01:04:43;;;;;;;2.00;1.90;;;22.10;51.40;;;;;;5094644;28;20551;-63
2023/01/30 01:07:31;;;;;;;2.17;2.08;;;22.00;51.40;;;;;;5094835;28;20278;-63
2023/01/30 01:10:20;;;;;;;2.20;2.03;;;22.00;51.40;;;;;;5094286;28;20223;-63
2023/01/30 01:13:09;;;;;;;2.47;2.28;;;22.00;51.40;;;;;;5094770;28;20239;-62
2023/01/30 01:15:57;;;;;;;4.50;2.10;;;22.00;51.50;;;;;;5094461;28;20208;-63
2023/01/30 01:18:47;;;;;;;2.10;1.90;;;21.90;51.40;;;;;;5093614;28;20192;-63
2023/01/30 01:21:35;;;;;;;2.35;2.08;;;21.90;51.60;;;;;;5095661;28;20265;-63
2023/01/30 01:24:23;;;;;;;2.78;2.58;;;21.90;51.50;;;;;;5094347;28;20231;-62
2023/01/30 01:27:11;;;;;;;3.00;2.80;;;21.80;51.50;;;;;;5094069;28;20635;-63
2023/01/30 01:29:59;;;;;;;1.98;1.88;;;21.80;51.60;;;;;;5094625;28;20227;-62
2023/01/30 01:32:49;;;;;;;2.00;1.90;;;21.80;51.60;;;;;;5094683;28;20222;-62
2023/01/30 01:35:41;;;;;;;2.80;2.58;;;21.80;51.60;;;;;;5094594;28;20200;-62
2023/01/30 01:38:29;;;;;;;2.28;2.08;;;21.80;51.60;;;;;;5094882;28;20281;-62
2023/01/30 01:41:17;;;;;;;2.70;2.22;;;21.80;51.60;;;;;;5095121;28;20302;-62
2023/01/30 01:44:07;;;;;;;3.20;2.47;;;21.80;51.60;;;;;;5095058;28;20204;-63
2023/01/30 01:46:59;;;;;;;3.10;2.85;;;21.90;51.60;;;;;;5094545;28;20220;-62
2023/01/30 01:49:47;;;;;;;3.13;2.60;;;21.90;51.50;;;;;;5094647;28;20753;-62
2023/01/30 01:52:37;;;;;;;2.20;2.10;;;21.90;51.40;;;;;;5093987;28;20210;-62
2023/01/30 01:55:26;;;;;;;2.72;2.53;;;21.90;51.40;;;;;;5093690;28;20283;-62
2023/01/30 01:58:18;;;;;;;2.92;2.65;;;21.90;51.30;;;;;;5109675;28;20206;-63
2023/01/30 02:01:07;;;;;;;4.80;2.97;;;21.90;51.30;;;;;;5114408;28;20339;-63
2023/01/30 02:04:00;;;;;;;2.53;2.33;;;21.90;51.40;;;;;;5114508;28;20203;-63
2023/01/30 02:06:48;;;;;;;3.03;2.45;;;21.90;51.40;;;;;;5112946;28;20219;-63
2023/01/30 02:09:38;;;;;;;2.90;2.70;;;21.90;51.40;;;;;;5114016;28;20264;-62
2023/01/30 02:12:26;;;;;;;3.10;2.67;;;21.90;51.50;;;;;;5094365;28;20204;-63
2023/01/30 02:15:16;;;;;;;3.20;3.00;;;21.80;51.30;;;;;;5095762;28;20333;-63
2023/01/30 02:18:04;;;;;;;2.22;2.03;;;21.80;51.40;;;;;;5102490;27;20198;-63
2023/01/30 02:21:11;;;;;;;2.50;2.38;;;21.80;51.60;;;;;;5113822;28;20243;-63
2023/01/30 02:24:21;;;;;;;4.13;2.67;;;21.70;51.60;;;;;;5114796;28;20277;-63
2023/01/30 02:27:36;;;;;;;2.67;2.47;;;21.70;51.50;;;;;;5113748;28;20215;-63
2023/01/30 02:30:47;;;;;;;2.97;2.72;;;21.70;51.70;;;;;;5114788;28;20215;-62
2023/01/30 02:33:43;;;;;;;3.13;2.90;;;21.80;51.70;;;;;;5114199;28;20248;-63
2023/01/30 02:36:41;;;;;;;3.20;3.00;;;21.80;51.70;;;;;;5112902;28;20196;-63
2023/01/30 02:39:41;;;;;;;2.58;2.33;;;21.80;55.70;;;;;;5112834;28;20295;-62
2023/01/30 02:42:36;;;;;;;2.75;2.55;;;21.80;51.70;;;;;;5114153;28;20286;-62
2023/01/30 02:45:33;;;;;;;2.53;2.35;;;21.90;51.70;;;;;;5114416;28;20195;-63
2023/01/30 02:48:28;;;;;;;2.58;2.38;;;21.90;51.60;;;;;;5114139;28;20736;-63
2023/01/30 02:51:19;;;;;;;3.42;2.22;;;21.90;51.60;;;;;;5114462;28;20725;-62
2023/01/30 02:54:10;;;;;;;2.47;2.20;;;21.90;51.70;;;;;;5113207;28;20287;-62
2023/01/30 02:56:59;;;;;;;2.42;2.22;;;21.90;51.60;;;;;;5107894;28;20257;-63
2023/01/30 02:59:51;;;;;;;4.00;2.75;;;21.90;51.60;;;;;;5092669;28;20223;-62
2023/01/30 03:03:06;;;;;;;2.78;2.58;;;22.00;51.60;;;;;;5092552;28;20283;-63
2023/01/30 03:06:20;;;;;;;2.33;2.13;;;22.00;51.90;;;;;;5092827;28;20200;-62
2023/01/30 03:09:19;;;;;;;2.90;2.70;;;22.00;51.60;;;;;;5092976;28;20246;-63
2023/01/30 03:12:14;;;;;;;3.25;2.63;;;22.00;51.50;;;;;;5094094;28;20227;-62
2023/01/30 03:15:09;;;;;;;2.25;2.05;;;22.00;51.50;;;;;;5093533;28;20204;-63
2023/01/30 03:17:58;;;;;;;3.38;2.70;;;22.00;51.40;;;;;;5093014;28;20289;-63
2023/01/30 03:20:46;;;;;;;2.55;2.35;;;22.00;51.50;;;;;;5092936;28;20269;-62
2023/01/30 03:23:36;;;;;;;3.45;3.13;;;22.00;51.50;;;;;;5092806;28;20764;-63
2023/01/30 03:26:28;;;;;;;2.60;2.40;;;22.00;51.40;;;;;;5092533;28;20595;-63
2023/01/30 03:29:16;;;;;;;2.95;2.70;;;22.00;51.50;;;;;;5092087;28;20571;-62
2023/01/30 03:32:05;;;;;;;2.83;2.35;;;21.90;51.60;;;;;;5093027;28;20227;-62
2023/01/30 03:34:53;;;;;;;3.70;3.35;;;21.90;51.70;;;;;;5093266;28;20199;-62
2023/01/30 03:37:41;;;;;;;2.88;2.67;;;21.90;51.60;;;;;;5093511;28;20684;-63
2023/01/30 03:40:30;;;;;;;2.50;2.30;;;21.90;51.70;;;;;;5092292;28;20231;-62
2023/01/30 03:43:18;;;;;;;3.22;2.78;;;21.90;51.80;;;;;;5093059;28;20268;-62
2023/01/30 03:46:06;;;;;;;3.20;2.85;;;21.90;51.70;;;;;;5092809;28;20232;-63
2023/01/30 03:48:54;;;;;;;2.95;2.70;;;21.90;51.70;;;;;;5092776;28;20545;-62
2023/01/30 03:51:42;;;;;;;2.42;2.13;;;21.90;51.80;;;;;;5097049;28;20285;-63
2023/01/30 03:54:30;;;;;;;2.63;2.45;;;21.80;51.70;;;;;;5097343;28;20235;-63
2023/01/30 03:57:19;;;;;;;3.05;2.80;;;21.90;51.80;;;;;;5096869;28;20271;-63
2023/01/30 04:00:09;;;;;;;7.68;2.88;;;21.90;51.70;;;;;;5095359;28;20301;-61
2023/01/30 04:02:57;;;;;;;8.90;3.05;;;21.90;51.70;;;;;;5096384;28;20291;-62
2023/01/30 04:05:46;;;;;;;2.78;2.58;;;21.90;51.70;;;;;;5096534;28;20289;-62
2023/01/30 04:08:34;;;;;;;2.65;2.45;;;21.90;51.80;;;;;;5096581;28;20631;-62
2023/01/30 04:11:22;;;;;;;3.25;2.60;;;21.90;51.80;;;;;;5095540;28;20302;-63
2023/01/30 04:14:11;;;;;;;4.03;3.05;;;21.90;51.80;;;;;;5096855;28;20695;-62
2023/01/30 04:16:59;;;;;;;2.42;2.22;;;21.90;51.80;;;;;;5096481;28;20274;-62
2023/01/30 04:19:47;;;;;;;2.88;2.67;;;21.90;52.00;;;;;;5095987;28;20248;-63
2023/01/30 04:22:35;;;;;;;2.53;2.33;;;21.90;51.90;;;;;;5096202;28;20203;-63
2023/01/30 04:25:23;;;;;;;2.75;2.17;;;21.90;51.90;;;;;;5095572;28;20333;-63
2023/01/30 04:28:11;;;;;;;2.60;2.40;;;21.90;51.90;;;;;;5096849;28;20332;-63
2023/01/30 04:31:01;;;;;;;2.92;2.72;;;21.90;51.90;;;;;;5095518;28;20313;-63
2023/01/30 04:33:49;;;;;;;2.70;2.50;;;21.90;51.80;;;;;;5095908;28;20207;-63
2023/01/30 04:36:37;;;;;;;3.60;2.90;;;22.00;52.00;;;;;;5096037;28;20207;-62
2023/01/30 04:39:25;;;;;;;3.50;3.15;;;22.00;54.90;;;;;;5096104;28;20277;-62
2023/01/30 04:42:13;;;;;;;3.22;2.92;;;22.00;51.80;;;;;;5096167;28;20254;-62
2023/01/30 04:45:01;;;;;;;1.88;1.77;;;22.00;51.80;;;;;;5096791;28;20196;-62
2023/01/30 04:47:50;;;;;;;2.70;2.42;;;22.00;51.90;;;;;;5096405;28;20662;-63
2023/01/30 04:50:39;;;;;;;3.70;2.60;;;22.10;52.00;;;;;;5096140;28;20223;-62
2023/01/30 04:53:27;;;;;;;2.47;2.28;;;22.00;52.00;;;;;;5095028;28;20200;-63
2023/01/30 04:56:15;;;;;;;2.60;2.40;;;22.00;52.00;;;;;;5094520;28;20281;-63
2023/01/30 04:59:03;;;;;;;2.50;2.30;;;22.00;52.00;;;;;;5093865;28;20202;-63
2023/01/30 05:01:51;;;;;;;5.28;2.50;;;22.00;52.00;;;;;;5095259;28;20330;-63
2023/01/30 05:04:41;;;;;;;2.35;2.10;;;21.90;52.00;;;;;;5095829;28;20207;-63
2023/01/30 05:07:29;;;;;;;3.75;3.25;;;21.90;52.00;;;;;;5096220;28;20649;-62
2023/01/30 05:10:17;;;;;;;2.75;2.50;;;21.90;52.00;;;;;;5096022;28;20305;-63
2023/01/30 05:13:06;;;;;;;2.47;2.28;;;21.90;52.00;;;;;;5095609;28;20199;-63
2023/01/30 05:15:54;;;;;;;3.13;2.83;;;22.00;52.20;;;;;;5095539;28;20265;-63
2023/01/30 05:18:42;;;;;;;2.90;2.70;;;21.90;52.00;;;;;;5096004;28;20231;-63
2023/01/30 05:21:31;;;;;;;2.47;2.20;;;21.90;52.10;;;;;;5094021;28;20269;-63
2023/01/30 05:24:20;;;;;;;2.33;2.15;;;21.90;52.20;;;;;;5095121;28;20688;-63
2023/01/30 05:27:08;;;;;;;2.75;2.55;;;22.00;52.30;;;;;;5094118;28;20626;-63
2023/01/30 05:29:56;;;;;;;2.47;2.22;;;21.90;52.10;;;;;;5094794;28;20247;-63
2023/01/30 05:32:44;;;;;;;2.75;2.55;;;22.00;52.30;;;;;;5095851;28;20261;-63
2023/01/30 05:35:32;;;;;;;2.60;2.40;;;22.00;52.30;;;;;;5096102;28;20281;-63
2023/01/30 05:38:22;;;;;;;2.70;2.50;;;22.00;52.20;;;;;;5094992;28;20275;-63
2023/01/30 05:41:11;;;;;;;2.58;2.38;;;22.00;52.20;;;;;;5094721;28;20291;-62
2023/01/30 05:43:59;;;;;;;2.30;2.10;;;22.00;52.20;;;;;;5095631;28;20229;-62
2023/01/30 05:46:47;;;;;;;2.10;1.90;;;22.10;52.30;;;;;;5095714;28;20288;-62
2023/01/30 05:49:36;;;;;;;2.67;2.47;;;22.10;52.30;;;;;;5093494;28;20227;-62
2023/01/30 05:52:24;;;;;;;2.80;2.60;;;22.00;52.30;;;;;;5095556;28;20285;-62
2023/01/30 05:55:14;;;;;;;2.70;2.47;;;22.10;52.40;;;;;;5095041;28;20279;-62
2023/01/30 05:58:02;;;;;;;2.40;2.20;;;22.10;52.40;;;;;;5108983;28;20640;-62
2023/01/30 06:00:51;;;;;;;2.78;2.58;;;22.10;52.40;;;;;;5114637;28;20223;-63
2023/01/30 06:03:39;;;;;;;3.67;3.38;;;22.00;52.30;;;;;;5114353;28;20206;-63
2023/01/30 06:06:27;;;;;;;2.80;2.47;;;22.00;52.40;;;;;;5113227;28;20210;-62
2023/01/30 06:09:15;;;;;;;3.13;2.65;;;21.80;52.20;;;;;;5113897;28;20298;-63
2023/01/30 06:12:06;;;;;;;3.05;2.83;;;21.90;52.50;;;;;;5114301;28;20200;-62
2023/01/30 06:14:54;;;;;;;3.08;2.85;;;21.90;52.60;;;;;;5113759;28;20248;-63
2023/01/30 06:17:43;;;;;;;2.60;2.40;;;21.90;52.70;;;;;;5114174;28;20196;-62
2023/01/30 06:20:31;;;;;;;3.70;2.35;;;21.80;52.70;;;;;;5113578;28;20789;-63
2023/01/30 06:23:20;;;;;;;2.88;2.58;;;21.90;52.80;;;;;;5113769;28;20751;-63
2023/01/30 06:26:09;;;;;;;2.05;1.95;;;21.90;52.80;;;;;;5113599;28;20199;-63
2023/01/30 06:28:58;;;;;;;2.88;2.60;;;21.90;52.80;;;;;;5113352;28;20304;-63
2023/01/30 06:31:46;;;;;;;2.50;2.30;;;21.90;52.80;;;;;;5114449;28;20222;-63
2023/01/30 06:34:34;;;;;;;2.53;2.33;;;22.00;52.80;;;;;;5114341;28;20203;-62
2023/01/30 06:37:22;;;;;;;2.00;1.90;;;22.00;52.80;;;;;;5113255;28;20671;-63
2023/01/30 06:40:12;;;;;;;2.50;2.30;;;22.00;52.80;;;;;;5113748;28;20691;-63
2023/01/30 06:43:00;;;;;;;2.58;1.92;;;22.10;52.80;;;;;;5113046;28;20671;-64
2023/01/30 06:45:49;;;;;;;2.90;2.08;;;22.10;52.70;;;;;;5099706;28;20262;-63
2023/01/30 06:48:37;;;;;;;2.33;2.10;;;22.20;52.80;;;;;;5101391;28;20223;-63
2023/01/30 06:51:26;;;;;;;4.03;2.13;;;22.20;52.80;;;;;;5099485;28;20230;-64
2023/01/30 06:54:14;;;;;;;2.35;1.70;;;22.20;52.90;;;;;;5111371;28;20207;-64
2023/01/30 06:57:03;;;;;;;2.47;2.28;;;22.20;53.00;;;;;;5107836;28;20271;-64
2023/01/30 06:59:51;;;;;;;2.40;2.20;;;22.20;53.00;;;;;;5093485;28;20710;-64
2023/01/30 07:02:40;;;;;;;2.15;2.05;;;22.20;53.10;;;;;;5093619;28;20330;-64
2023/01/30 07:05:28;;;;;;;2.28;2.00;;;22.20;53.10;;;;;;5093120;28;20204;-64
2023/01/30 07:08:17;;;;;;;2.33;2.13;;;22.10;53.20;;;;;;5091449;28;20316;-63
2023/01/30 07:11:05;;;;;;;3.83;2.15;;;22.10;53.30;;;;;;5112509;28;20288;-64
2023/01/30 07:13:53;;;;;;;2.50;1.95;;;22.00;53.40;;;;;;5112106;28;20260;-64
2023/01/30 07:16:41;;;;;;;2.45;1.90;;;22.00;53.50;;;;;;5113601;28;20760;-63
2023/01/30 07:19:31;;;;;;;2.45;2.00;;;22.10;57.80;;;;;;5112014;28;20227;-63
2023/01/30 07:22:19;;;;;;;16.27;3.45;;;21.90;53.60;;;;;;5112253;28;20729;-63
2023/01/30 07:25:07;;;;;;;12.25;2.20;;;21.90;53.80;;;;;;5112837;28;20199;-63
2023/01/30 07:27:57;;;;;;;7.85;2.08;;;21.90;53.80;;;;;;5113271;28;20614;-62
2023/01/30 07:30:45;;;;;;;3.83;2.63;;;21.90;53.80;;;;;;5112421;28;20219;-63
2023/01/30 07:33:34;;;;;;;10.40;3.03;;;22.00;53.90;;;;;;5106852;28;20259;-63
2023/01/30 07:36:23;;;;;;;7.05;1.77;;;21.90;53.80;;;;;;5108826;28;20214;-63
2023/01/30 07:39:11;;;;;;;14.70;2.45;;;22.00;53.90;;;;;;5103712;28;20282;-62
2023/01/30 07:42:00;;;;;;;3.17;1.60;;;22.00;53.80;;;;;;5103666;28;20218;-63
2023/01/30 07:44:48;;;;;;;25.25;4.13;;;22.10;54.00;;;;;;5092113;28;20208;-62
2023/01/30 07:47:36;;;;;;;27.65;2.63;;;22.10;54.00;;;;;;5109137;28;20207;-62
2023/01/30 07:50:24;;;;;;;6.80;2.20;;;22.10;54.90;;;;;;5113178;28;20264;-62
2023/01/30 07:53:16;;;;;;;6.03;2.58;;;22.10;54.40;;;;;;5112614;28;20333;-62
2023/01/30 07:56:07;;;;;;;4.82;2.03;;;22.10;54.50;;;;;;5113583;28;20199;-62
2023/01/30 07:58:56;;;;;;;2.25;1.63;;;22.10;55.20;;;;;;5112405;28;20204;-62
2023/01/30 08:01:44;;;;;;;6.32;2.00;;;22.10;54.60;;;;;;5100063;28;20200;-62
2023/01/30 08:04:32;;;;;;;4.60;1.45;;;22.20;55.20;;;;;;5100463;28;20297;-60
2023/01/30 08:07:20;;;;;;;4.40;1.52;;;22.20;55.00;;;;;;5091002;28;20204;-62
2023/01/30 08:10:11;;;;;;;2.80;1.58;;;22.10;55.00;;;;;;5103326;28;20344;-60
2023/01/30 08:12:59;;;;;;;1.77;1.67;;;22.10;55.00;;;;;;5111676;28;20621;-61
2023/01/30 08:15:47;;;;;;;2.50;1.50;;;22.00;55.10;;;;;;5103901;28;20200;-61
2023/01/30 08:18:35;;;;;;;2.28;1.42;;;22.00;55.30;;;;;;5111344;28;20538;-61
2023/01/30 08:21:24;;;;;;;3.72;2.15;;;21.90;55.30;;;;;;5097690;28;20648;-61
2023/01/30 08:24:12;;;;;;;4.50;1.67;;;21.90;55.40;;;;;;5100713;28;20562;-60
2023/01/30 08:27:02;;;;;;;1.65;1.27;;;21.90;55.30;;;;;;5092652;28;20273;-60
2023/01/30 08:29:50;;;;;;;4.35;1.15;;;21.90;55.30;;;;;;5091812;28;20265;-60
2023/01/30 08:32:39;;;;;;;3.60;1.42;;;21.80;55.30;;;;;;5092393;28;20621;-60
2023/01/30 08:35:51;;;;;;;1.50;1.38;;;22.10;59.50;;;;;;5885370;22;20191;-62
2023/01/30 08:38:40;;;;;;;5.03;1.60;;;22.10;55.70;;;;;;5098424;28;20277;-62
2023/01/30 08:41:13;;;;;;;4.88;1.70;;;22.10;55.80;;;;;;5111553;28;20558;-61
2023/01/30 08:43:43;;;;;;;4.18;1.65;;;22.10;55.80;;;;;;5116306;28;20211;-59
2023/01/30 08:46:11;;;;;;;2.28;1.98;;;22.10;55.80;;;;;;5115901;28;20215;-60
2023/01/30 08:48:40;;;;;;;1.42;1.33;;;22.20;55.90;;;;;;5116046;28;20197;-60
2023/01/30 08:51:17;;;;;;;1.63;1.20;;;22.20;55.90;;;;;;5105878;28;20244;-60
2023/01/30 08:53:45;;;;;;;1.88;1.00;;;22.20;55.90;;;;;;5109549;28;20191;-60
2023/01/30 08:56:13;;;;;;;3.83;1.70;;;22.20;55.90;;;;;;5101683;28;20245;-60
2023/01/30 08:58:42;;;;;;;1.80;1.00;;;22.20;55.80;;;;;;5111053;28;20278;-60
2023/01/30 09:01:12;;;;;;;2.80;1.42;;;22.20;55.80;;;;;;5115986;28;20195;-61
2023/01/30 09:03:40;;;;;;;1.45;1.10;;;22.20;55.90;;;;;;5116066;28;20183;-60
2023/01/30 09:06:08;;;;;;;3.00;1.15;;;22.20;56.00;;;;;;5099955;28;20323;-61
2023/01/30 09:08:36;;;;;;;2.55;1.40;;;22.20;56.20;;;;;;5105188;28;20204;-61
2023/01/30 09:11:05;;;;;;;1.60;1.50;;;22.20;56.30;;;;;;5104548;28;20220;-60
2023/01/30 09:13:34;;;;;;;6.13;1.50;;;22.20;56.50;;;;;;5095183;28;20196;-61
2023/01/30 09:16:03;;;;;;;1.35;1.25;;;22.20;56.60;;;;;;5099389;28;20293;-60
2023/01/30 09:18:33;;;;;;;1.77;1.10;;;22.20;56.60;;;;;;5115196;28;20199;-61
2023/01/30 09:21:05;;;;;;;4.63;1.38;;;22.20;56.70;;;;;;5107237;28;20290;-60
2023/01/30 09:23:33;;;;;;;3.78;1.33;;;22.20;56.60;;;;;;5110089;28;20196;-61
2023/01/30 09:26:02;;;;;;;2.40;1.20;;;22.10;56.60;;;;;;5115076;28;20226;-61
2023/01/30 09:28:31;;;;;;;2.85;1.30;;;22.10;56.60;;;;;;5111350;28;20210;-61
2023/01/30 09:31:00;;;;;;;2.55;2.00;;;22.20;56.80;;;;;;5110836;28;20215;-61
2023/01/30 09:33:29;;;;;;;2.72;1.40;;;22.10;56.70;;;;;;5111376;28;20203;-61
2023/01/30 09:35:58;;;;;;;1.90;1.30;;;22.20;56.70;;;;;;5098427;28;20315;-61
2023/01/30 09:38:26;;;;;;;4.55;1.00;;;22.20;56.70;;;;;;5103359;28;20229;-61
2023/01/30 09:41:11;;;;;;;2.65;1.10;;;22.20;56.90;;;;;;5114657;28;20201;-61
2023/01/30 09:43:49;;;;;;;2.15;0.95;;;22.20;56.70;;;;;;5114820;28;20256;-61
2023/01/30 09:46:30;;;;;;;3.17;1.17;;;22.20;56.40;;;;;;5108677;28;20227;-61
2023/01/30 09:49:04;;;;;;;6.03;1.00;;;22.20;56.80;;;;;;5093987;28;20199;-61
2023/01/30 09:51:52;;;;;;;2.00;1.17;;;22.20;56.60;;;;;;5094152;28;20212;-61
2023/01/30 09:54:23;;;;;;;1.55;0.95;;;22.20;56.80;;;;;;5094441;28;20208;-61
2023/01/30 09:57:09;;;;;;;2.60;1.00;;;22.20;56.70;;;;;;5093937;28;20223;-61
2023/01/30 09:59:57;;;;;;;5.45;1.05;;;23.80;58.20;;;;;;5093969;28;20206;-61
2023/01/30 10:02:38;;;;;;;11.02;1.17;;;22.20;56.80;;;;;;5093820;28;20253;-61
2023/01/30 10:05:07;;;;;;;9.07;1.23;;;22.20;59.50;;;;;;5093822;28;20245;-60
2023/01/30 10:07:53;;;;;;;8.95;1.20;;;22.20;56.60;;;;;;5093991;28;20204;-61
2023/01/30 10:10:37;;;;;;;3.38;1.02;;;22.20;56.80;;;;;;5099614;28;20211;-61
2023/01/30 10:13:20;;;;;;;2.25;1.52;;;22.20;56.60;;;;;;5100239;28;20204;-61
2023/01/30 10:15:53;;;;;;;1.98;1.00;;;22.20;56.70;;;;;;5102861;28;20219;-61
2023/01/30 10:18:46;;;;;;;2.25;1.17;;;22.20;56.70;;;;;;5113840;28;20207;-61
2023/01/30 10:21:26;;;;;;;4.22;1.20;;;25.20;59.30;;;;;;5114653;28;20175;-60
2023/01/30 10:24:15;;;;;;;1.90;1.10;;;22.20;56.80;;;;;;5106086;28;20260;-60
2023/01/30 10:26:43;;;;;;;2.60;1.10;;;22.20;56.80;;;;;;5105031;28;20222;-61
2023/01/30 10:29:17;;;;;;;2.30;1.00;;;22.20;56.80;;;;;;5114227;28;20199;-61
2023/01/30 10:31:49;;;;;;;0.90;0.90;;;22.20;56.90;;;;;;5093353;28;20219;-61
2023/01/30 10:34:22;;;;;;;1.85;1.00;;;22.30;56.70;;;;;;5093586;28;20264;-61
2023/01/30 10:36:55;;;;;;;2.17;1.00;;;22.30;56.90;;;;;;5102314;28;20230;-61
2023/01/30 10:39:31;;;;;;;4.50;1.00;;;22.30;56.80;;;;;;5106665;28;20211;-61
2023/01/30 10:42:07;;;;;;;3.10;1.08;;;22.30;56.90;;;;;;5113698;27;20210;-61
2023/01/30 10:44:39;;;;;;;2.10;0.90;;;22.40;56.90;;;;;;5104581;28;20222;-62
2023/01/30 10:47:22;;;;;;;2.05;1.20;;;22.50;57.00;;;;;;5112095;28;20225;-61
2023/01/30 10:49:54;;;;;;;1.98;0.93;;;22.40;56.70;;;;;;5111921;28;20226;-61
2023/01/30 10:52:32;;;;;;;2.50;1.05;;;22.40;56.70;;;;;;5111208;28;20215;-61
2023/01/30 10:55:09;;;;;;;3.03;0.90;;;22.50;56.70;;;;;;5112656;28;20194;-61
2023/01/30 10:57:49;;;;;;;1.25;0.98;;;22.30;56.60;;;;;;5113442;28;20278;-61
2023/01/30 11:00:25;;;;;;;3.58;0.93;;;22.30;56.80;;;;;;5112830;28;20195;-61
2023/01/30 11:03:11;;;;;;;5.38;1.17;;;22.30;56.70;;;;;;5113584;28;20195;-61
2023/01/30 11:05:45;;;;;;;1.70;0.85;;;22.30;56.60;;;;;;5113011;28;20215;-61
2023/01/30 11:08:23;;;;;;;4.40;1.05;;;22.30;56.60;;;;;;5113063;28;20200;-61
2023/01/30 11:10:54;;;;;;;5.35;1.33;;;22.30;56.70;;;;;;5113173;28;20250;-61
2023/01/30 11:13:25;;;;;;;1.50;0.98;;;22.30;56.60;;;;;;5113404;28;20227;-61
2023/01/30 11:15:57;;;;;;;3.30;1.20;;;22.20;56.60;;;;;;5112947;28;20223;-61
2023/01/30 11:18:27;;;;;;;2.58;0.88;;;22.20;56.50;;;;;;5112970;28;20207;-61
2023/01/30 11:21:21;;;;;;;1.42;1.02;;;22.20;56.60;;;;;;5113630;28;20191;-61
2023/01/30 11:23:54;;;;;;;7.03;1.35;;;22.20;56.60;;;;;;5113041;28;20195;-61
2023/01/30 11:26:29;;;;;;;2.63;1.42;;;22.20;56.60;;;;;;5109061;28;20223;-61
2023/01/30 11:29:26;;;;;;;2.40;1.15;;;22.20;56.60;;;;;;5096606;28;20192;-61
2023/01/30 11:31:54;;;;;;;5.68;1.33;;;22.30;56.60;;;;;;5104281;28;20219;-61
2023/01/30 11:34:24;;;;;;;3.38;0.90;;;22.30;56.60;;;;;;5098504;28;20195;-61
2023/01/30 11:36:52;;;;;;;1.90;1.10;;;22.30;56.40;;;;;;5106355;28;20224;-61
2023/01/30 11:39:28;;;;;;;3.70;1.15;;;22.30;56.50;;;;;;5113140;28;20210;-61
2023/01/30 11:42:03;;;;;;;4.70;1.30;;;22.40;56.50;;;;;;5111658;28;20195;-61
2023/01/30 11:44:36;;;;;;;5.15;1.38;;;22.40;56.50;;;;;;5092193;28;20290;-61
2023/01/30 11:47:08;;;;;;;4.78;1.00;;;22.40;56.40;;;;;;5094558;28;20241;-61
2023/01/30 11:49:41;;;;;;;4.85;1.35;;;22.40;56.30;;;;;;5095493;28;20228;-61
2023/01/30 11:52:30;;;;;;;2.97;0.98;;;22.40;56.70;;;;;;5093403;28;20216;-60
2023/01/30 11:55:04;;;;;;;1.60;0.85;;;22.40;56.60;;;;;;5100541;28;20253;-61
2023/01/30 11:57:40;;;;;;;4.63;1.10;;;22.40;56.10;;;;;;5098033;28;20207;-61
2023/01/30 12:00:16;;;;;;;4.03;1.13;;;22.40;56.70;;;;;;5103047;28;20207;-61
2023/01/30 12:02:46;;;;;;;13.13;1.27;;;22.40;56.50;;;;;;5106422;28;20196;-61
2023/01/30 12:05:25;;;;;;;3.78;1.17;;;22.70;59.80;;;;;;5101823;28;20331;-61
2023/01/30 12:07:53;;;;;;;2.83;1.65;;;22.40;56.40;;;;;;5104489;28;20187;-60
2023/01/30 12:10:30;;;;;;;8.77;1.70;;;22.40;56.00;;;;;;5105588;28;20223;-59
2023/01/30 12:13:03;;;;;;;2.63;1.38;;;22.50;56.30;;;;;;5105860;28;20204;-60
2023/01/30 12:15:33;;;;;;;3.08;1.75;;;22.40;56.40;;;;;;5104385;28;20229;-60
2023/01/30 12:18:10;;;;;;;1.63;1.00;;;22.40;56.60;;;;;;5108996;28;20246;-60
2023/01/30 12:20:49;;;;;;;5.18;1.13;;;22.30;57.10;;;;;;5107726;28;20195;-60
2023/01/30 12:23:26;;;;;;;2.92;1.33;;;22.30;56.30;;;;;;5106590;28;20203;-60
2023/01/30 12:26:01;;;;;;;4.15;1.40;;;22.30;56.40;;;;;;5102547;28;20218;-61
2023/01/30 12:28:38;;;;;;;4.53;1.30;;;22.40;56.80;;;;;;5097091;28;20213;-60
2023/01/30 12:31:11;;;;;;;3.58;1.10;;;22.30;56.30;;;;;;5097021;28;20235;-60
2023/01/30 12:33:39;;;;;;;77.32;7.43;;;22.40;56.80;;;;;;5096771;28;20275;-61
2023/01/30 12:36:19;;;;;;;18.58;2.65;;;22.40;56.50;;;;;;5095819;28;20224;-61
2023/01/30 12:39:19;;;;;;;8.55;1.70;;;22.40;56.60;;;;;;5096909;28;20659;-60
2023/01/30 12:42:10;;;;;;;4.03;1.25;;;22.40;56.70;;;;;;5105272;28;20231;-60
2023/01/30 12:44:53;;;;;;;9.95;1.20;;;22.50;56.40;;;;;;5111005;28;20207;-61
2023/01/30 12:47:38;;;;;;;6.18;1.45;;;22.50;56.10;;;;;;5111966;28;20219;-61
2023/01/30 12:50:20;;;;;;;11.23;1.25;;;22.40;56.00;;;;;;5106903;28;20200;-60
2023/01/30 12:53:02;;;;;;;6.38;1.27;;;22.40;56.60;;;;;;5103481;28;20231;-60
2023/01/30 12:55:42;;;;;;;1.80;1.00;;;22.50;56.80;;;;;;5097613;28;20323;-60
2023/01/30 12:58:16;;;;;;;9.05;1.30;;;22.50;56.50;;;;;;5100359;28;20192;-61
2023/01/30 13:01:02;;;;;;;3.13;1.00;;;22.50;56.40;;;;;;5095754;28;20298;-60
2023/01/30 13:03:39;;;;;;;2.15;1.05;;;22.50;56.60;;;;;;5096284;28;20283;-61
2023/01/30 13:06:18;;;;;;;3.65;1.10;;;22.50;56.50;;;;;;5095964;28;20257;-60
2023/01/30 13:08:58;;;;;;;1.33;0.73;;;22.50;56.40;;;;;;5095973;28;20196;-60
2023/01/30 13:11:44;;;;;;;4.43;1.20;;;22.40;56.60;;;;;;5095915;28;20303;-61
2023/01/30 13:14:22;;;;;;;4.43;0.95;;;22.40;56.70;;;;;;5096462;28;20317;-60
2023/01/30 13:17:05;;;;;;;1.33;0.85;;;22.40;56.70;;;;;;5096496;28;20222;-60
2023/01/30 13:19:40;;;;;;;4.68;1.00;;;22.40;56.60;;;;;;5099839;28;20208;-61
2023/01/30 13:22:15;;;;;;;5.72;1.35;;;22.40;56.90;;;;;;5101847;28;20204;-60
2023/01/30 13:24:50;;;;;;;2.03;1.20;;;22.40;56.50;;;;;;5110071;28;20199;-60
2023/01/30 13:27:22;;;;;;;3.67;1.10;;;22.40;56.70;;;;;;5112352;28;20231;-61
2023/01/30 13:29:52;;;;;;;4.72;1.10;;;22.40;56.90;;;;;;5112239;28;20200;-61
2023/01/30 13:32:36;;;;;;;3.20;1.15;;;22.40;56.90;;;;;;5113202;28;20219;-61
2023/01/30 13:35:13;;;;;;;4.28;1.38;;;22.40;56.70;;;;;;5108024;28;20204;-60
2023/01/30 13:37:42;;;;;;;3.33;1.23;;;22.50;56.90;;;;;;5111600;28;20223;-61
2023/01/30 13:40:16;;;;;;;2.25;1.15;;;22.50;57.00;;;;;;5109375;28;20231;-60
2023/01/30 13:42:50;;;;;;;3.28;1.30;;;22.40;56.80;;;;;;5111162;28;20202;-61
2023/01/30 13:45:22;;;;;;;4.88;1.08;;;22.40;59.30;;;;;;5111235;28;20184;-61
2023/01/30 13:48:07;;;;;;;8.07;1.92;;;22.40;56.70;;;;;;5130991;28;20195;-61
2023/01/30 13:50:47;;;;;;;5.00;1.25;;;22.50;56.60;;;;;;5132113;28;20209;-60
2023/01/30 13:53:23;;;;;;;4.72;0.93;;;22.40;56.40;;;;;;5124995;28;20215;-61
2023/01/30 13:55:56;;;;;;;3.10;1.00;;;22.40;56.50;;;;;;5123934;28;20203;-60
2023/01/30 13:58:42;;;;;;;4.43;1.50;;;22.40;56.70;;;;;;5132311;28;20258;-61
2023/01/30 14:01:12;;;;;;;7.68;1.25;;;22.40;56.60;;;;;;5133481;28;20178;-61
2023/01/30 14:03:42;;;;;;;5.65;1.52;;;22.40;56.60;;;;;;5108917;28;20227;-60
2023/01/30 14:06:35;;;;;;;10.27;1.40;;;22.40;56.60;;;;;;5122584;28;20227;-60
2023/01/30 14:09:32;;;;;;;1.52;1.00;;;22.40;56.50;;;;;;5132715;28;20191;-60
2023/01/30 14:12:02;;;;;;;7.30;1.00;;;22.30;56.40;;;;;;5130176;28;20274;-65
2023/01/30 14:14:38;;;;;;;4.45;1.35;;;22.30;56.80;;;;;;5124826;28;20221;-61
2023/01/30 14:17:12;;;;;;;4.00;1.13;;;22.30;56.70;;;;;;5113358;28;20220;-61
2023/01/30 14:19:45;;;;;;;7.40;1.52;;;22.30;56.60;;;;;;5110083;28;20203;-61